createdAt,value
2022-09-20T00:01:56.428Z,97695.63
2022-09-20T00:04:27.557Z,97695.66
2022-09-20T00:06:57.360Z,97699.28
2022-09-20T00:09:27.235Z,97703.13
2022-09-20T00:11:56.997Z,97712.22
2022-09-20T00:14:26.688Z,97706.31
2022-09-20T00:16:56.437Z,97703.34
2022-09-20T00:19:27.812Z,97704.66
2022-09-20T00:21:57.114Z,97697.47
2022-09-20T00:24:26.805Z,97705.66
2022-09-20T00:26:56.160Z,97701.50
2022-09-20T00:29:26.228Z,97698.09
2022-09-20T00:31:55.527Z,97696.56
2022-09-20T00:34:44.751Z,97683.59
2022-09-20T00:37:14.112Z,97694.06
2022-09-20T00:39:43.438Z,97701.81
2022-09-20T00:42:14.762Z,97690.50
2022-09-20T00:45:02.611Z,97696.28
2022-09-20T00:47:37.408Z,97696.31
2022-09-20T00:50:16.790Z,97699.09
2022-09-20T00:52:48.340Z,97697.22
2022-09-20T00:55:18.325Z,97685.53
2022-09-20T00:57:48.333Z,97694.34
2022-09-20T01:00:17.848Z,97684.56
2022-09-20T01:02:49.987Z,97701.28
2022-09-20T01:05:21.738Z,97681.78
2022-09-20T01:07:52.831Z,97682.38
2022-09-20T01:10:22.170Z,97678.31
2022-09-20T01:12:52.754Z,97676.69
2022-09-20T01:15:23.573Z,97673.00
2022-09-20T01:17:54.371Z,97677.03
2022-09-20T01:20:27.541Z,97667.31
2022-09-20T01:23:17.848Z,97674.91
2022-09-20T01:26:17.401Z,97691.28
2022-09-20T01:28:49.107Z,97695.09
2022-09-20T01:31:22.196Z,97698.16
2022-09-20T01:33:54.593Z,97683.75
2022-09-20T01:36:27.371Z,97690.22
2022-09-20T01:39:04.869Z,97694.97
2022-09-20T01:41:38.170Z,97697.44
2022-09-20T01:44:14.987Z,97694.28
2022-09-20T01:46:45.505Z,97694.06
2022-09-20T01:49:22.993Z,97688.34
2022-09-20T01:52:23.612Z,97688.81
2022-09-20T01:55:28.283Z,97688.06
2022-09-20T01:58:38.294Z,97692.16
2022-09-20T02:01:27.692Z,97690.19
2022-09-20T02:04:23.672Z,97678.16
2022-09-20T02:07:09.457Z,97680.28
2022-09-20T02:10:06.582Z,97667.59
2022-09-20T02:12:50.741Z,97669.75
2022-09-20T02:15:42.936Z,97678.44
2022-09-20T02:18:23.261Z,97671.81
2022-09-20T02:20:56.681Z,97673.09
2022-09-20T02:23:42.936Z,97676.56
2022-09-20T02:26:36.371Z,97669.22
2022-09-20T02:29:17.768Z,97665.72
2022-09-20T02:32:07.843Z,97669.47
2022-09-20T02:34:55.528Z,97660.66
2022-09-20T02:37:55.236Z,97651.22
2022-09-20T02:40:36.953Z,97651.59
2022-09-20T02:43:12.164Z,97656.72
2022-09-20T02:45:45.971Z,97660.13
2022-09-20T02:48:16.928Z,97662.22
2022-09-20T02:50:54.645Z,97659.19
2022-09-20T02:53:33.777Z,97657.41
2022-09-20T02:56:09.390Z,97655.94
2022-09-20T02:58:46.170Z,97666.28
2022-09-20T03:01:33.036Z,97664.63
2022-09-20T03:04:19.657Z,97665.56
2022-09-20T03:06:54.832Z,97680.09
2022-09-20T03:09:30.017Z,97680.88
2022-09-20T03:12:08.232Z,97670.84
2022-09-20T03:14:42.492Z,97670.03
2022-09-20T03:17:20.431Z,97673.19
2022-09-20T03:20:06.501Z,97664.31
2022-09-20T03:22:49.531Z,97660.47
2022-09-20T03:25:39.286Z,97665.53
2022-09-20T03:28:28.401Z,97658.13
2022-09-20T03:31:05.446Z,97657.56
2022-09-20T03:33:46.539Z,97658.81
2022-09-20T03:36:41.876Z,97663.41
2022-09-20T03:39:32.212Z,97663.88
2022-09-20T03:42:11.140Z,97663.34
2022-09-20T03:45:21.176Z,97657.19
2022-09-20T03:48:06.191Z,97659.06
2022-09-20T03:50:45.632Z,97651.44
2022-09-20T03:53:40.103Z,97648.59
2022-09-20T03:56:32.229Z,97659.53
2022-09-20T03:59:15.903Z,97666.50
2022-09-20T04:02:17.306Z,97672.72
2022-09-20T04:04:51.355Z,97676.94
2022-09-20T04:07:24.925Z,97671.94
2022-09-20T04:10:05.162Z,97682.09
2022-09-20T04:12:44.239Z,97672.22
2022-09-20T04:15:26.102Z,97674.06
2022-09-20T04:18:00.364Z,97674.66
2022-09-20T04:20:37.429Z,97672.25
2022-09-20T04:23:23.215Z,97679.31
2022-09-20T04:25:53.569Z,97678.09
2022-09-20T04:28:28.628Z,97679.47
2022-09-20T04:31:07.536Z,97688.59
2022-09-20T04:33:42.015Z,97687.97
2022-09-20T04:36:29.992Z,97694.13
2022-09-20T04:39:11.813Z,97700.03
2022-09-20T04:42:15.787Z,97696.50
2022-09-20T04:45:11.144Z,97702.22
2022-09-20T04:48:13.996Z,97708.66
2022-09-20T04:51:20.276Z,97706.47
2022-09-20T04:54:18.309Z,97703.66
2022-09-20T04:57:05.070Z,97690.91
2022-09-20T04:59:43.488Z,97704.31
2022-09-20T05:02:46.997Z,97708.53
2022-09-20T05:05:36.095Z,97714.72
2022-09-20T05:08:41.316Z,97710.25
2022-09-20T05:11:42.514Z,97711.75
2022-09-20T05:14:41.065Z,97713.28
2022-09-20T05:17:23.481Z,97723.47
2022-09-20T05:20:27.297Z,97708.06
2022-09-20T05:23:17.511Z,97707.50
2022-09-20T05:26:14.244Z,97713.66
2022-09-20T05:28:55.873Z,97722.25
2022-09-20T05:31:37.617Z,97718.19
2022-09-20T05:34:18.190Z,97722.50
2022-09-20T05:36:56.854Z,97739.28
2022-09-20T05:39:36.673Z,97733.63
2022-09-20T05:42:18.616Z,97737.44
2022-09-20T05:44:59.508Z,97745.63
2022-09-20T05:47:36.552Z,97739.69
2022-09-20T05:50:41.493Z,97741.97
2022-09-20T05:53:30.898Z,97744.09
2022-09-20T05:56:07.326Z,97750.09
2022-09-20T05:58:54.328Z,97744.00
2022-09-20T06:01:29.309Z,97747.69
2022-09-20T06:04:10.416Z,97754.56
2022-09-20T06:06:51.362Z,97754.88
2022-09-20T06:09:56.258Z,97753.84
2022-09-20T06:12:43.110Z,97757.34
2022-09-20T06:15:21.820Z,97747.56
2022-09-20T06:17:57.645Z,97759.84
2022-09-20T06:20:31.185Z,97748.97
2022-09-20T06:23:02.091Z,97744.66
2022-09-20T06:25:36.265Z,97750.03
2022-09-20T06:28:08.542Z,97750.00
2022-09-20T06:30:41.215Z,97743.81
2022-09-20T06:33:17.672Z,97743.44
2022-09-20T06:35:50.963Z,97746.47
2022-09-20T06:38:52.660Z,97754.56
2022-09-20T06:41:30.069Z,97754.44
2022-09-20T06:44:00.063Z,97745.13
2022-09-20T06:46:30.250Z,97737.91
2022-09-20T06:49:02.339Z,97736.81
2022-09-20T06:51:37.691Z,97747.84
2022-09-20T06:54:08.297Z,97752.06
2022-09-20T06:56:39.234Z,97754.69
2022-09-20T06:59:10.509Z,97752.38
2022-09-20T07:01:41.878Z,97761.53
2022-09-20T07:04:11.868Z,97755.94
2022-09-20T07:06:42.144Z,97771.63
2022-09-20T07:09:13.194Z,97770.59
2022-09-20T07:11:46.987Z,97774.50
2022-09-20T07:14:17.289Z,97771.06
2022-09-20T07:16:47.251Z,97780.22
2022-09-20T07:19:17.842Z,97773.84
2022-09-20T07:21:47.184Z,97764.56
2022-09-20T07:24:17.367Z,97770.94
2022-09-20T07:26:59.257Z,97776.06
2022-09-20T07:29:29.739Z,97774.59
2022-09-20T07:31:59.533Z,97772.75
2022-09-20T07:34:29.598Z,97774.97
2022-09-20T07:37:00.060Z,97777.56
2022-09-20T07:39:30.770Z,97772.13
2022-09-20T07:42:06.186Z,97779.78
2022-09-20T07:44:35.418Z,97789.88
2022-09-20T07:47:07.436Z,97784.56
2022-09-20T07:49:37.362Z,97787.44
2022-09-20T07:52:07.789Z,97785.75
2022-09-20T07:54:36.972Z,97788.94
2022-09-20T07:57:10.101Z,97796.88
2022-09-20T07:59:39.403Z,97798.47
2022-09-20T08:02:08.773Z,97793.41
2022-09-20T08:04:38.050Z,97797.69
2022-09-20T08:07:07.780Z,97811.59
2022-09-20T08:09:37.445Z,97806.03
2022-09-20T08:14:58.414Z,97799.63
2022-09-20T08:17:29.100Z,97794.41
2022-09-20T08:19:58.338Z,97803.91
2022-09-20T08:22:28.553Z,97804.19
2022-09-20T08:24:57.752Z,97806.75
2022-09-20T08:27:29.658Z,97796.97
2022-09-20T08:30:01.195Z,97788.03
2022-09-20T08:32:33.241Z,97787.75
2022-09-20T08:35:02.720Z,97790.56
2022-09-20T08:37:32.413Z,97788.13
2022-09-20T08:40:01.590Z,97793.72
2022-09-20T08:42:37.911Z,97796.53
2022-09-20T08:45:34.449Z,97787.84
2022-09-20T08:48:08.678Z,97790.91
2022-09-20T08:50:38.695Z,97784.69
2022-09-20T08:53:09.480Z,97785.38
2022-09-20T08:55:41.714Z,97787.84
2022-09-20T08:58:13.663Z,97794.22
2022-09-20T09:00:46.482Z,97784.38
2022-09-20T09:03:18.188Z,97791.94
2022-09-20T09:05:48.636Z,97788.88
2022-09-20T09:08:19.899Z,97790.41
2022-09-20T09:10:54.260Z,97782.91
2022-09-20T09:13:28.275Z,97783.59
2022-09-20T09:16:00.660Z,97772.16
2022-09-20T09:18:35.254Z,97769.03
2022-09-20T09:21:05.532Z,97768.88
2022-09-20T09:23:42.577Z,97770.00
2022-09-20T09:26:22.282Z,97772.03
2022-09-20T09:29:13.602Z,97756.75
2022-09-20T09:31:46.593Z,97766.56
2022-09-20T09:34:27.759Z,97758.50
2022-09-20T09:36:57.757Z,97756.81
2022-09-20T09:39:28.920Z,97760.97
2022-09-20T09:42:01.442Z,97751.63
2022-09-20T09:44:34.214Z,97753.19
2022-09-20T09:47:03.898Z,97757.09
2022-09-20T09:49:36.643Z,97749.72
2022-09-20T09:52:12.009Z,97753.19
2022-09-20T09:54:47.052Z,97753.91
2022-09-20T09:57:28.778Z,97736.81
2022-09-20T10:00:19.368Z,97729.75
2022-09-20T10:03:11.586Z,97720.19
2022-09-20T10:05:47.753Z,97714.19
2022-09-20T10:08:25.223Z,97713.13
2022-09-20T10:11:07.498Z,97713.78
2022-09-20T10:13:41.584Z,97720.06
2022-09-20T10:16:19.552Z,97718.50
2022-09-20T10:18:53.819Z,97714.09
2022-09-20T10:21:39.213Z,97710.53
2022-09-20T10:24:17.807Z,97714.31
2022-09-20T10:27:15.878Z,97711.72
2022-09-20T10:29:57.567Z,97697.59
2022-09-20T10:32:50.047Z,97706.09
2022-09-20T10:35:28.005Z,97701.44
2022-09-20T10:38:07.620Z,97707.34
2022-09-20T10:40:58.741Z,97709.03
2022-09-20T10:43:38.150Z,97700.97
2022-09-20T10:46:31.441Z,97701.16
2022-09-20T10:49:18.239Z,97708.09
2022-09-20T10:51:56.637Z,97719.78
2022-09-20T10:54:38.686Z,97711.84
2022-09-20T10:57:28.089Z,97708.38
2022-09-20T11:00:03.745Z,97704.72
2022-09-20T11:02:45.945Z,97717.72
2022-09-20T11:05:36.035Z,97719.25
2022-09-20T11:08:12.042Z,97718.44
2022-09-20T11:10:45.185Z,97715.34
2022-09-20T11:13:25.969Z,97723.06
2022-09-20T11:16:00.527Z,97711.66
2022-09-20T11:18:35.807Z,97720.00
2022-09-20T11:21:10.321Z,97722.81
2022-09-20T11:23:47.230Z,97723.63
2022-09-20T11:26:22.733Z,97719.13
2022-09-20T11:28:55.237Z,97708.66
2022-09-20T11:31:28.507Z,97711.16
2022-09-20T11:34:03.505Z,97708.88
2022-09-20T11:36:39.913Z,97712.03
2022-09-20T11:39:16.386Z,97706.69
2022-09-20T11:41:46.167Z,97698.09
2022-09-20T11:44:18.491Z,97707.44
2022-09-20T11:46:53.062Z,97707.44
2022-09-20T11:49:25.096Z,97703.38
2022-09-20T11:52:22.761Z,97699.59
2022-09-20T11:55:19.345Z,97698.63
2022-09-20T11:58:01.097Z,97695.97
2022-09-20T12:00:32.590Z,97699.09
2022-09-20T12:03:03.858Z,97694.75
2022-09-20T12:05:36.065Z,97698.53
2022-09-20T12:08:11.116Z,97689.81
2022-09-20T12:10:44.306Z,97686.97
2022-09-20T12:13:24.472Z,97695.69
2022-09-20T12:16:02.188Z,97684.44
2022-09-20T12:18:37.688Z,97685.03
2022-09-20T12:21:16.530Z,97696.66
2022-09-20T12:24:12.038Z,97686.91
2022-09-20T12:26:59.316Z,97683.22
2022-09-20T12:30:06.717Z,97685.28
2022-09-20T12:32:56.541Z,97683.59
2022-09-20T12:36:14.555Z,97687.50
2022-09-20T12:39:02.293Z,97694.38
2022-09-20T12:41:49.464Z,97687.59
2022-09-20T12:44:31.267Z,97694.72
2022-09-20T12:47:03.495Z,97694.91
2022-09-20T12:50:08.526Z,97697.16
2022-09-20T12:53:01.175Z,97700.75
2022-09-20T12:55:41.476Z,97699.72
2022-09-20T12:58:44.314Z,97706.50
2022-09-20T13:01:35.420Z,97710.31
2022-09-20T13:04:44.131Z,97712.91
2022-09-20T13:07:41.201Z,97709.84
2022-09-20T13:10:27.160Z,97703.41
2022-09-20T13:13:01.604Z,97695.53
2022-09-20T13:15:33.288Z,97703.06
2022-09-20T13:18:04.289Z,97700.47
2022-09-20T13:23:23.650Z,97701.44
2022-09-20T13:25:53.236Z,97693.22
2022-09-20T13:28:36.623Z,97694.41
2022-09-20T13:31:30.147Z,97687.66
2022-09-20T13:34:15.948Z,97688.69
2022-09-20T13:36:45.206Z,97689.63
2022-09-20T13:39:29.477Z,97687.19
2022-09-20T13:42:07.119Z,97687.03
2022-09-20T13:44:37.396Z,97680.97
2022-09-20T13:47:24.751Z,97688.88
2022-09-20T13:49:56.858Z,97678.19
2022-09-20T13:52:28.570Z,97670.31
2022-09-20T13:54:58.524Z,97674.84
2022-09-20T13:57:31.485Z,97674.06
2022-09-20T14:00:01.784Z,97678.38
2022-09-20T14:02:34.526Z,97674.97
2022-09-20T14:05:07.317Z,97669.31
2022-09-20T14:07:37.486Z,97676.63
2022-09-20T14:10:27.110Z,97676.38
2022-09-20T14:15:49.513Z,97668.38
2022-09-20T14:18:22.285Z,97672.75
2022-09-20T14:20:51.774Z,97681.75
2022-09-20T14:23:25.445Z,97675.63
2022-09-20T14:26:22.101Z,97674.91
2022-09-20T14:28:51.509Z,97681.03
2022-09-20T14:31:23.879Z,97676.81
2022-09-20T14:33:56.550Z,97687.19
2022-09-20T14:36:27.757Z,97685.84
2022-09-20T14:39:00.647Z,97678.19
2022-09-20T14:41:34.114Z,97691.16
2022-09-20T14:44:04.293Z,97683.44
2022-09-20T14:46:35.925Z,97681.66
2022-09-20T14:49:39.808Z,97686.75
2022-09-20T14:52:40.180Z,97688.00
2022-09-20T14:55:28.665Z,97689.88
2022-09-20T14:58:04.345Z,97688.69
2022-09-20T15:00:49.020Z,97690.84
2022-09-20T15:03:23.181Z,97693.16
2022-09-20T15:05:53.839Z,97701.63
2022-09-20T15:08:23.419Z,97702.13
2022-09-20T15:10:52.702Z,97706.38
2022-09-20T15:13:21.954Z,97709.66
2022-09-20T15:15:54.324Z,97719.84
2022-09-20T15:18:40.977Z,97729.97
2022-09-20T15:21:12.584Z,97736.50
2022-09-20T15:23:42.409Z,97737.69
2022-09-20T15:26:13.325Z,97731.66
2022-09-20T15:28:43.015Z,97734.34
2022-09-20T15:31:16.509Z,97730.91
2022-09-20T15:33:45.776Z,97730.00
2022-09-20T15:36:16.448Z,97726.19
2022-09-20T15:38:46.061Z,97734.28
2022-09-20T15:41:15.425Z,97731.41
2022-09-20T15:43:45.031Z,97739.56
2022-09-20T15:46:21.576Z,97736.63
2022-09-20T15:48:52.905Z,97749.13
2022-09-20T15:51:24.437Z,97748.72
2022-09-20T15:53:57.707Z,97753.56
2022-09-20T15:56:28.769Z,97753.03
2022-09-20T15:59:00.451Z,97754.31
2022-09-20T16:01:32.186Z,97747.53
2022-09-20T16:04:02.311Z,97748.78
2022-09-20T16:06:34.445Z,97764.50
2022-09-20T16:09:03.934Z,97769.47
2022-09-20T16:11:33.266Z,97774.16
2022-09-20T16:14:03.068Z,97773.72
2022-09-20T16:16:38.883Z,97777.22
2022-09-20T16:19:18.047Z,97768.00
2022-09-20T16:21:53.774Z,97777.13
2022-09-20T16:24:28.914Z,97768.47
2022-09-20T16:27:01.439Z,97768.59
2022-09-20T16:29:31.168Z,97758.84
2022-09-20T16:32:01.820Z,97756.53
2022-09-20T16:34:33.096Z,97761.25
2022-09-20T16:37:05.867Z,97762.59
2022-09-20T16:39:35.512Z,97767.16
2022-09-20T16:42:08.790Z,97775.56
2022-09-20T16:44:40.094Z,97769.47
2022-09-20T16:47:18.253Z,97777.00
2022-09-20T16:49:48.171Z,97779.41
2022-09-20T16:52:18.942Z,97774.38
2022-09-20T16:54:48.593Z,97788.81
2022-09-20T16:57:17.946Z,97800.06
2022-09-20T16:59:48.319Z,97806.09
2022-09-20T17:02:18.032Z,97798.66
2022-09-20T17:04:47.875Z,97809.63
2022-09-20T17:07:18.814Z,97809.19
2022-09-20T17:09:48.176Z,97811.28
2022-09-20T17:12:21.929Z,97813.41
2022-09-20T17:14:51.429Z,97817.81
2022-09-20T17:17:22.881Z,97821.75
2022-09-20T17:19:52.531Z,97817.84
2022-09-20T17:22:23.737Z,97824.03
2022-09-20T17:24:53.642Z,97823.50
2022-09-20T17:27:24.122Z,97832.09
2022-09-20T17:29:53.697Z,97828.38
2022-09-20T17:32:23.137Z,97832.66
2022-09-20T17:34:52.918Z,97835.22
2022-09-20T17:37:23.832Z,97845.06
2022-09-20T17:39:53.099Z,97847.06
2022-09-20T17:42:23.203Z,97844.00
2022-09-20T17:44:52.418Z,97847.69
2022-09-20T17:47:22.720Z,97853.84
2022-09-20T17:49:54.926Z,97849.41
2022-09-20T17:52:26.310Z,97856.91
2022-09-20T17:54:56.666Z,97850.63
2022-09-20T17:57:25.893Z,97850.78
2022-09-20T17:59:55.122Z,97862.34
2022-09-20T18:02:28.180Z,97860.84
2022-09-20T18:05:06.742Z,97871.56
2022-09-20T18:07:48.655Z,97865.78
2022-09-20T18:10:17.812Z,97878.75
2022-09-20T18:12:47.605Z,97883.84
2022-09-20T18:15:17.928Z,97874.53
2022-09-20T18:17:51.329Z,97882.34
2022-09-20T18:20:23.643Z,97889.28
2022-09-20T18:22:54.950Z,97883.41
2022-09-20T18:25:25.292Z,97890.16
2022-09-20T18:27:55.021Z,97883.88
2022-09-20T18:30:24.482Z,97899.72
2022-09-20T18:32:54.145Z,97903.16
2022-09-20T18:35:23.699Z,97910.81
2022-09-20T18:37:54.488Z,97907.84
2022-09-20T18:40:25.221Z,97906.31
2022-09-20T18:43:03.712Z,97917.47
2022-09-20T18:45:35.063Z,97909.88
2022-09-20T18:48:07.571Z,97913.59
2022-09-20T18:50:37.610Z,97917.97
2022-09-20T18:53:08.699Z,97917.25
2022-09-20T18:55:38.927Z,97906.22
2022-09-20T18:58:10.042Z,97922.38
2022-09-20T19:00:39.930Z,97918.56
2022-09-20T19:03:16.077Z,97914.56
2022-09-20T19:05:48.740Z,97915.69
2022-09-20T19:08:35.566Z,97915.78
2022-09-20T19:11:09.805Z,97932.00
2022-09-20T19:13:45.105Z,97919.44
2022-09-20T19:16:19.730Z,97925.94
2022-09-20T19:19:13.560Z,97928.56
2022-09-20T19:21:49.605Z,97934.13
2022-09-20T19:24:42.191Z,97937.59
2022-09-20T19:27:13.928Z,97944.44
2022-09-20T19:29:44.516Z,97947.50
2022-09-20T19:32:21.528Z,97954.78
2022-09-20T19:34:55.268Z,97961.03
2022-09-20T19:37:33.023Z,97956.28
2022-09-20T19:40:26.406Z,97948.88
2022-09-20T19:43:06.581Z,97959.09
2022-09-20T19:45:42.128Z,97970.03
2022-09-20T19:48:19.438Z,97971.91
2022-09-20T19:50:53.271Z,97968.38
2022-09-20T19:53:28.322Z,97976.81
2022-09-20T19:56:02.214Z,97978.28
2022-09-20T19:58:32.127Z,97973.75
2022-09-20T20:01:01.819Z,97963.44
2022-09-20T20:03:31.774Z,97976.66
2022-09-20T20:06:08.076Z,97973.41
2022-09-20T20:08:45.841Z,97984.41
2022-09-20T20:11:25.148Z,97981.63
2022-09-20T20:14:10.278Z,97978.91
2022-09-20T20:16:46.997Z,97986.22
2022-09-20T20:19:36.588Z,97985.06
2022-09-20T20:22:23.655Z,97983.81
2022-09-20T20:24:54.359Z,97978.19
2022-09-20T20:27:28.445Z,97984.28
2022-09-20T20:29:58.401Z,97985.97
2022-09-20T20:32:28.087Z,97996.78
2022-09-20T20:34:58.077Z,97997.41
2022-09-20T20:37:31.097Z,97997.03
2022-09-20T20:40:02.692Z,97996.47
2022-09-20T20:42:39.774Z,97988.22
2022-09-20T20:45:10.162Z,97986.53
2022-09-20T20:47:58.382Z,97996.19
2022-09-20T20:50:44.841Z,97995.19
2022-09-20T20:53:30.503Z,97992.16
2022-09-20T20:56:56.129Z,98003.91
2022-09-20T20:59:40.940Z,98009.94
2022-09-20T21:02:14.800Z,98007.63
2022-09-20T21:04:50.974Z,98008.41
2022-09-20T21:07:56.348Z,98017.22
2022-09-20T21:10:52.112Z,98009.59
2022-09-20T21:14:08.423Z,98016.34
2022-09-20T21:20:34.127Z,98024.00
2022-09-20T21:23:27.503Z,98026.13
2022-09-20T21:26:18.007Z,98031.53
2022-09-20T21:28:52.181Z,98033.00
2022-09-20T21:31:22.773Z,98041.31
2022-09-20T21:33:53.949Z,98035.19
2022-09-20T21:36:27.762Z,98040.06
2022-09-20T21:39:00.884Z,98040.91
2022-09-20T21:41:34.164Z,98036.38
2022-09-20T21:44:05.091Z,98033.16
2022-09-20T21:46:36.429Z,98038.84
2022-09-20T21:49:09.135Z,98041.53
2022-09-20T21:51:39.238Z,98044.78
2022-09-20T21:54:08.953Z,98049.09
2022-09-20T21:56:40.316Z,98041.72
2022-09-20T21:59:10.715Z,98045.63
2022-09-20T22:01:41.458Z,98048.03
2022-09-20T22:04:13.351Z,98049.78
2022-09-20T22:06:45.357Z,98041.47
2022-09-20T22:09:19.826Z,98047.69
2022-09-20T22:11:51.072Z,98051.22
2022-09-20T22:14:21.378Z,98041.53
2022-09-20T22:16:51.622Z,98047.06
2022-09-20T22:19:22.489Z,98047.28
2022-09-20T22:21:52.347Z,98044.94
2022-09-20T22:24:21.672Z,98048.66
2022-09-20T22:26:53.715Z,98043.56
2022-09-20T22:29:25.854Z,98058.22
2022-09-20T22:31:55.425Z,98044.22
2022-09-20T22:34:29.080Z,98047.16
2022-09-20T22:36:58.652Z,98050.69
2022-09-20T22:39:28.116Z,98051.28
2022-09-20T22:41:57.555Z,98050.13
2022-09-20T22:44:26.990Z,98057.00
2022-09-20T22:46:57.602Z,98058.19
2022-09-20T22:49:28.324Z,98058.59
2022-09-20T22:51:57.573Z,98062.97
2022-09-20T22:54:27.112Z,98059.47
2022-09-20T22:56:59.598Z,98056.28
2022-09-20T22:59:29.490Z,98067.09
2022-09-20T23:01:59.187Z,98063.56
2022-09-20T23:04:32.798Z,98060.28
2022-09-20T23:07:01.930Z,98069.91
2022-09-20T23:09:31.820Z,98063.66
2022-09-20T23:12:01.657Z,98066.63
2022-09-20T23:14:31.174Z,98064.72
2022-09-20T23:17:00.997Z,98061.03
2022-09-20T23:19:32.170Z,98063.13
2022-09-20T23:22:02.127Z,98066.97
2022-09-20T23:24:31.593Z,98075.78
2022-09-20T23:27:03.264Z,98065.84
2022-09-20T23:29:34.551Z,98068.19
2022-09-20T23:32:13.765Z,98071.34
2022-09-20T23:34:47.181Z,98073.25
2022-09-20T23:37:17.181Z,98069.03
2022-09-20T23:39:46.718Z,98075.97
2022-09-20T23:42:16.026Z,98083.97
2022-09-20T23:44:45.668Z,98078.13
2022-09-20T23:47:15.064Z,98080.06
2022-09-20T23:49:49.056Z,98083.94
2022-09-20T23:52:20.894Z,98077.38
2022-09-20T23:54:50.323Z,98086.00
2022-09-20T23:57:24.421Z,98086.09
2022-09-20T23:59:54.444Z,98081.31
